Time;durP1;ratioP1;P1;durP2;ratioP2;P2;SDS_P1;SDS_P2;PMS_P1;PMS_P2;Temp;Humidity;BMP_temperature;BMP_pressure;BME280_temperature;BME280_humidity;BME280_pressure;Samples;Min_cycle;Max_cycle;Signal;HPM_P1;HPM_P2
2021/09/20 00:01:26;;;;;;;1.45;0.93;;;16.30;91.70;;;;;;10100876;28;20044;-63
2021/09/20 00:06:17;;;;;;;1.60;0.82;;;16.30;91.90;;;;;;10115770;28;20025;-60
2021/09/20 00:11:07;;;;;;;1.27;1.00;;;16.20;91.90;;;;;;10119245;28;20089;-60
2021/09/20 00:15:58;;;;;;;1.50;1.00;;;16.20;91.90;;;;;;10122806;28;20160;-59
2021/09/20 00:20:49;;;;;;;1.58;0.90;;;16.30;92.00;;;;;;10116379;28;20123;-59
2021/09/20 00:25:40;;;;;;;0.95;0.70;;;16.20;92.00;;;;;;10122256;28;20097;-59
2021/09/20 00:30:30;;;;;;;2.33;1.50;;;16.30;92.00;;;;;;10125119;28;20047;-60
2021/09/20 00:35:21;;;;;;;1.20;0.80;;;16.30;92.10;;;;;;10129389;28;20028;-60
2021/09/20 00:40:12;;;;;;;1.85;1.05;;;16.20;92.20;;;;;;10108373;28;20507;-61
2021/09/20 00:45:05;;;;;;;2.15;1.10;;;16.20;92.30;;;;;;10118739;28;20146;-58
2021/09/20 00:49:55;;;;;;;4.30;1.35;;;16.20;92.30;;;;;;10116717;28;20020;-58
2021/09/20 00:54:50;;;;;;;1.30;0.88;;;16.20;92.40;;;;;;10123682;28;20399;-59
2021/09/20 00:59:41;;;;;;;2.70;1.10;;;16.20;92.30;;;;;;10122958;28;20093;-58
2021/09/20 01:04:31;;;;;;;1.90;1.10;;;16.20;92.40;;;;;;10119792;28;20081;-59
2021/09/20 01:09:24;;;;;;;2.05;0.90;;;16.20;92.40;;;;;;10118814;28;20414;-60
2021/09/20 01:14:15;;;;;;;1.35;1.02;;;16.20;92.40;;;;;;10115488;28;20294;-60
2021/09/20 01:19:06;;;;;;;1.60;1.00;;;16.30;92.40;;;;;;10117341;28;20348;-59
2021/09/20 01:23:56;;;;;;;2.45;1.20;;;16.20;92.40;;;;;;10118439;28;20017;-59
2021/09/20 01:28:47;;;;;;;1.45;1.02;;;16.10;92.60;;;;;;10117302;28;20032;-59
2021/09/20 01:33:38;;;;;;;1.33;0.98;;;16.10;92.70;;;;;;10117016;28;20036;-59
2021/09/20 01:38:28;;;;;;;2.20;1.45;;;16.10;92.70;;;;;;10092903;28;20190;-61
2021/09/20 01:43:19;;;;;;;1.83;1.30;;;16.10;92.70;;;;;;10113407;28;20392;-59
2021/09/20 01:48:10;;;;;;;2.55;1.33;;;16.10;92.60;;;;;;10118203;28;20036;-59
2021/09/20 01:53:01;;;;;;;2.72;1.23;;;16.20;92.60;;;;;;10116596;28;20400;-59
2021/09/20 01:57:52;;;;;;;1.05;0.82;;;16.10;92.60;;;;;;10107824;28;20045;-59
2021/09/20 02:02:43;;;;;;;2.05;1.23;;;16.00;92.80;;;;;;10112512;28;20394;-59
2021/09/20 02:07:34;;;;;;;1.95;1.17;;;16.10;92.70;;;;;;10120681;28;20033;-60
2021/09/20 02:12:25;;;;;;;1.92;1.70;;;16.10;92.70;;;;;;10114439;28;20787;-60
2021/09/20 02:17:16;;;;;;;2.28;1.70;;;16.20;92.80;;;;;;10114308;28;20039;-60
2021/09/20 02:22:07;;;;;;;2.55;1.10;;;16.10;92.80;;;;;;10116827;28;20048;-58
2021/09/20 02:26:58;;;;;;;2.25;1.40;;;16.10;92.90;;;;;;10100026;28;20039;-59
2021/09/20 02:31:49;;;;;;;2.22;1.33;;;16.10;92.80;;;;;;10113719;28;20044;-59
2021/09/20 02:36:39;;;;;;;1.27;1.05;;;16.10;92.80;;;;;;10113859;28;20041;-59
2021/09/20 02:41:30;;;;;;;2.33;1.25;;;16.00;92.90;;;;;;10114813;28;20365;-60
2021/09/20 02:46:21;;;;;;;2.05;1.10;;;16.10;93.00;;;;;;10123486;28;20038;-60
2021/09/20 02:51:12;;;;;;;1.83;1.30;;;16.10;93.00;;;;;;10097298;28;20035;-60
2021/09/20 02:56:04;;;;;;;2.33;1.55;;;16.10;93.00;;;;;;10111729;28;20043;-61
2021/09/20 03:00:55;;;;;;;2.65;1.60;;;16.10;93.00;;;;;;10118432;28;20291;-60
2021/09/20 03:05:47;;;;;;;3.28;1.15;;;16.00;93.00;;;;;;10098135;28;20107;-60
2021/09/20 03:10:38;;;;;;;1.50;1.02;;;16.00;93.10;;;;;;10121384;28;20303;-60
2021/09/20 03:15:29;;;;;;;1.73;1.33;;;16.00;93.00;;;;;;10118356;28;20031;-59
2021/09/20 03:20:20;;;;;;;1.95;1.33;;;16.00;93.10;;;;;;10095962;28;20046;-60
2021/09/20 03:25:12;;;;;;;3.33;1.13;;;16.00;93.10;;;;;;10112872;28;20029;-59
2021/09/20 03:30:05;;;;;;;1.92;1.00;;;16.00;93.20;;;;;;10110716;28;20099;-58
2021/09/20 03:34:55;;;;;;;2.60;1.83;;;16.10;93.10;;;;;;10116487;28;20028;-59
2021/09/20 03:39:46;;;;;;;2.75;1.85;;;16.10;93.10;;;;;;10113971;28;20044;-60
2021/09/20 03:44:37;;;;;;;3.50;1.48;;;16.10;93.10;;;;;;10126523;28;20037;-59
2021/09/20 03:49:27;;;;;;;1.90;1.20;;;16.00;93.00;;;;;;10119577;28;20040;-59
2021/09/20 03:54:18;;;;;;;1.77;1.20;;;15.90;93.10;;;;;;10123609;28;20028;-59
2021/09/20 03:59:09;;;;;;;1.38;1.08;;;15.90;93.20;;;;;;10119745;28;20059;-61
2021/09/20 04:04:00;;;;;;;2.63;1.70;;;15.90;93.20;;;;;;10115653;28;20017;-59
2021/09/20 04:08:53;;;;;;;1.27;1.00;;;15.80;93.20;;;;;;10119047;28;20028;-60
2021/09/20 04:13:43;;;;;;;2.85;1.13;;;15.80;93.20;;;;;;10104566;28;20042;-61
2021/09/20 04:18:34;;;;;;;1.70;1.20;;;15.90;93.30;;;;;;10120521;28;20088;-60
2021/09/20 04:23:26;;;;;;;1.88;1.45;;;15.80;93.40;;;;;;10124323;28;20533;-59
2021/09/20 04:28:17;;;;;;;5.93;1.40;;;15.80;93.30;;;;;;10115678;28;20126;-60
2021/09/20 04:33:08;;;;;;;2.97;1.48;;;15.80;93.40;;;;;;10123117;28;20564;-59
2021/09/20 04:37:58;;;;;;;2.00;1.20;;;15.80;93.40;;;;;;10100541;28;20045;-60
2021/09/20 04:42:49;;;;;;;2.58;1.17;;;15.90;93.30;;;;;;10113833;28;20032;-60
2021/09/20 04:47:40;;;;;;;1.77;1.20;;;15.80;93.40;;;;;;10120953;28;20035;-61
2021/09/20 04:52:30;;;;;;;1.40;0.90;;;15.80;93.40;;;;;;10114248;28;20024;-60
2021/09/20 04:57:21;;;;;;;1.23;1.00;;;15.80;93.40;;;;;;10118830;28;20399;-58
2021/09/20 05:02:12;;;;;;;2.72;1.13;;;16.00;93.30;;;;;;10117618;28;20453;-59
2021/09/20 05:07:03;;;;;;;1.73;1.27;;;15.90;93.40;;;;;;10114763;28;20086;-59
2021/09/20 05:11:53;;;;;;;2.00;1.17;;;15.90;93.40;;;;;;10122065;28;21073;-59
2021/09/20 05:16:44;;;;;;;2.35;1.40;;;15.90;93.40;;;;;;10117089;28;20674;-60
2021/09/20 05:21:35;;;;;;;2.30;1.55;;;16.00;93.40;;;;;;10120497;28;20041;-59
2021/09/20 05:26:25;;;;;;;1.65;1.23;;;16.00;93.30;;;;;;10117944;28;20067;-59
2021/09/20 05:31:16;;;;;;;3.92;1.60;;;15.90;93.40;;;;;;10119430;28;20633;-59
2021/09/20 05:36:08;;;;;;;3.40;1.25;;;15.90;93.50;;;;;;10099564;28;20039;-60
2021/09/20 05:40:59;;;;;;;2.90;1.60;;;15.90;93.40;;;;;;10120280;28;20033;-59
2021/09/20 05:45:49;;;;;;;1.40;1.10;;;15.90;93.40;;;;;;10120273;28;20025;-59
2021/09/20 05:50:40;;;;;;;2.25;1.60;;;15.90;93.40;;;;;;10113133;28;20037;-62
2021/09/20 05:55:31;;;;;;;1.77;1.48;;;15.90;93.50;;;;;;10115285;28;20049;-61
2021/09/20 06:00:22;;;;;;;3.42;2.00;;;15.80;93.50;;;;;;10111793;28;20052;-60
2021/09/20 06:05:14;;;;;;;2.95;1.92;;;15.80;93.50;;;;;;10116165;28;20082;-59
2021/09/20 06:10:06;;;;;;;2.90;2.00;;;15.90;93.40;;;;;;10120370;28;20024;-60
2021/09/20 06:14:56;;;;;;;3.63;1.83;;;16.00;93.40;;;;;;10102010;28;20378;-59
2021/09/20 06:19:47;;;;;;;2.65;1.77;;;16.00;93.30;;;;;;10113994;28;20418;-61
2021/09/20 06:24:38;;;;;;;2.42;1.60;;;16.00;93.30;;;;;;10119441;28;20461;-62
2021/09/20 06:29:29;;;;;;;2.97;1.70;;;16.00;93.40;;;;;;10107000;28;20094;-59
2021/09/20 06:34:19;;;;;;;2.65;1.58;;;16.10;93.40;;;;;;10110199;28;20025;-57
2021/09/20 06:39:10;;;;;;;2.13;1.35;;;16.10;93.30;;;;;;10112075;28;20114;-58
2021/09/20 06:44:03;;;;;;;2.05;1.83;;;16.20;93.30;;;;;;10120758;28;20051;-58
2021/09/20 06:48:55;;;;;;;1.77;1.35;;;16.30;93.40;;;;;;10113899;28;20037;-60
2021/09/20 06:53:46;;;;;;;3.63;1.83;;;16.40;93.20;;;;;;10114800;28;20027;-59
2021/09/20 06:58:37;;;;;;;2.33;1.35;;;16.50;93.20;;;;;;10116606;28;20048;-58
2021/09/20 07:03:27;;;;;;;2.88;1.48;;;16.50;93.20;;;;;;10109701;28;20041;-60
2021/09/20 07:08:18;;;;;;;3.40;1.83;;;16.60;93.10;;;;;;10109835;28;20039;-59
2021/09/20 07:13:09;;;;;;;2.70;1.48;;;16.60;93.20;;;;;;10109495;28;20024;-58
2021/09/20 07:18:00;;;;;;;1.70;1.40;;;16.70;93.20;;;;;;10111722;28;20115;-59
2021/09/20 07:22:51;;;;;;;2.05;1.67;;;16.70;93.10;;;;;;10111828;28;20036;-59
2021/09/20 07:27:42;;;;;;;2.80;1.67;;;16.60;93.20;;;;;;10112634;28;20039;-60
2021/09/20 07:32:33;;;;;;;4.75;1.52;;;16.80;93.20;;;;;;10112380;28;20422;-59
2021/09/20 07:37:24;;;;;;;2.17;1.52;;;16.70;93.10;;;;;;10115554;28;20021;-60
2021/09/20 07:42:14;;;;;;;2.50;1.90;;;16.80;93.10;;;;;;10104583;28;20044;-61
2021/09/20 07:47:05;;;;;;;2.50;1.70;;;17.00;92.90;;;;;;10113903;28;20061;-60
2021/09/20 07:51:56;;;;;;;4.63;1.63;;;17.10;92.80;;;;;;10113134;28;20067;-59
2021/09/20 07:56:46;;;;;;;2.40;1.35;;;17.10;92.80;;;;;;10115358;28;20525;-60
2021/09/20 08:01:37;;;;;;;3.47;1.50;;;17.20;92.80;;;;;;10116994;28;20508;-59
2021/09/20 08:06:28;;;;;;;3.22;1.52;;;17.20;92.50;;;;;;10113743;28;20173;-59
2021/09/20 08:11:19;;;;;;;2.33;1.50;;;17.20;92.70;;;;;;10113250;28;20032;-61
2021/09/20 08:16:10;;;;;;;4.85;1.88;;;17.40;92.60;;;;;;10116686;28;20017;-59
2021/09/20 08:21:01;;;;;;;2.38;1.65;;;17.30;92.50;;;;;;10116176;28;20040;-60
2021/09/20 08:25:52;;;;;;;2.35;1.98;;;17.30;92.40;;;;;;10121176;28;20036;-59
2021/09/20 08:30:43;;;;;;;2.55;1.65;;;17.20;92.50;;;;;;10119722;28;20040;-62
2021/09/20 08:35:34;;;;;;;3.05;1.50;;;17.10;92.50;;;;;;10099726;28;20031;-61
2021/09/20 08:40:27;;;;;;;3.75;1.60;;;17.30;92.30;;;;;;10111166;28;20063;-61
2021/09/20 08:45:20;;;;;;;2.33;1.23;;;17.40;92.00;;;;;;10121880;28;20032;-61
2021/09/20 08:50:13;;;;;;;3.13;1.42;;;17.50;92.00;;;;;;10117253;28;20360;-63
2021/09/20 08:55:05;;;;;;;3.28;1.42;;;17.80;91.80;;;;;;10121855;28;20422;-60
2021/09/20 08:59:56;;;;;;;2.20;1.48;;;18.10;91.70;;;;;;10115914;28;20573;-63
2021/09/20 09:04:46;;;;;;;2.08;1.63;;;18.30;91.30;;;;;;10123390;28;20052;-61
2021/09/20 09:09:40;;;;;;;3.15;1.38;;;18.70;91.20;;;;;;10111366;28;20127;-60
2021/09/20 09:14:39;;;;;;;1.45;1.15;;;18.80;91.00;;;;;;10122716;28;20033;-60
2021/09/20 09:19:30;;;;;;;1.00;0.82;;;18.90;90.80;;;;;;10113024;28;20040;-60
2021/09/20 09:24:20;;;;;;;1.80;1.42;;;18.80;90.70;;;;;;10120290;28;20029;-59
2021/09/20 09:29:14;;;;;;;1.48;0.90;;;18.80;90.80;;;;;;10118550;28;20133;-60
2021/09/20 09:34:34;;;;;;;1.27;1.13;;;19.00;90.50;;;;;;10116562;28;20029;-61
2021/09/20 09:39:29;;;;;;;2.30;1.60;;;19.10;90.30;;;;;;10103886;28;20514;-62
2021/09/20 09:44:33;;;;;;;3.42;1.70;;;19.10;90.20;;;;;;10123344;28;20066;-62
2021/09/20 09:49:26;;;;;;;3.33;2.15;;;19.30;90.00;;;;;;10108579;28;20040;-63
2021/09/20 09:54:17;;;;;;;6.63;2.85;;;19.40;89.70;;;;;;10116994;28;20078;-62
2021/09/20 09:59:07;;;;;;;3.13;2.13;;;19.60;89.60;;;;;;10117419;28;20053;-59
2021/09/20 10:04:21;;;;;;;6.00;2.80;;;19.80;89.00;;;;;;10113342;28;20037;-60
2021/09/20 10:09:14;;;;;;;3.38;2.83;;;20.20;87.50;;;;;;10115460;28;20537;-59
2021/09/20 10:14:06;;;;;;;4.63;2.25;;;20.50;87.20;;;;;;10106875;28;20028;-59
2021/09/20 10:18:59;;;;;;;2.63;1.60;;;20.60;86.30;;;;;;10099213;28;20272;-61
2021/09/20 10:23:51;;;;;;;2.20;1.73;;;20.30;86.80;;;;;;10118344;28;20064;-61
2021/09/20 10:28:42;;;;;;;4.55;2.08;;;19.50;87.70;;;;;;10091947;28;20100;-63
2021/09/20 10:33:33;;;;;;;4.28;2.17;;;19.30;88.10;;;;;;10113771;28;20093;-60
2021/09/20 10:38:28;;;;;;;2.72;1.60;;;19.10;87.90;;;;;;10115305;28;20535;-63
2021/09/20 10:43:24;;;;;;;2.72;1.90;;;19.00;87.50;;;;;;10119771;28;20246;-61
2021/09/20 10:48:29;;;;;;;2.63;2.03;;;19.10;87.20;;;;;;10108823;28;20053;-64
2021/09/20 10:53:34;;;;;;;3.03;2.07;;;19.10;86.90;;;;;;10113118;28;20028;-64
2021/09/20 10:58:45;;;;;;;;;;;19.00;86.80;;;;;;10098428;28;20057;-63
2021/09/20 11:03:52;;;;;;;5.30;2.28;;;19.00;86.50;;;;;;10075408;28;19977;-61
2021/09/20 11:08:43;;;;;;;3.05;2.70;;;19.10;87.40;;;;;;10111590;28;20569;-63
2021/09/20 11:14:00;;;;;;;4.68;2.15;;;19.30;86.70;;;;;;10120440;28;20021;-62
2021/09/20 11:18:50;;;;;;;4.43;2.90;;;19.60;85.30;;;;;;10115084;28;20051;-61
2021/09/20 11:23:41;;;;;;;4.28;2.55;;;19.80;85.70;;;;;;10094926;28;20029;-61
2021/09/20 11:28:34;;;;;;;3.17;2.63;;;20.00;85.40;;;;;;10107336;28;20036;-62
2021/09/20 11:33:40;;;;;;;5.70;2.60;;;20.00;85.30;;;;;;10117718;28;20533;-61
2021/09/20 11:38:31;;;;;;;3.88;2.75;;;20.30;84.30;;;;;;10108316;28;20045;-62
2021/09/20 11:43:22;;;;;;;4.80;3.50;;;20.20;84.50;;;;;;10100792;28;20619;-63
2021/09/20 11:48:19;;;;;;;4.55;2.15;;;20.50;84.20;;;;;;10097029;28;20047;-63
2021/09/20 11:53:13;;;;;;;4.05;2.08;;;20.50;83.80;;;;;;10107555;28;20537;-64
2021/09/20 11:58:06;;;;;;;3.77;2.20;;;20.40;84.30;;;;;;10111323;28;20052;-63
2021/09/20 12:03:02;;;;;;;3.28;2.67;;;20.70;82.90;;;;;;10103374;28;20097;-63
2021/09/20 12:07:57;;;;;;;4.53;2.42;;;20.70;82.70;;;;;;10117506;28;20032;-61
2021/09/20 12:12:50;;;;;;;5.05;2.08;;;20.70;82.20;;;;;;10119551;28;20032;-69
2021/09/20 12:18:04;;;;;;;2.38;1.95;;;20.80;82.10;;;;;;10120223;28;20492;-61
2021/09/20 12:22:56;;;;;;;3.15;2.33;;;21.00;80.60;;;;;;10098263;28;20119;-62
2021/09/20 12:27:48;;;;;;;5.30;3.45;;;21.10;80.70;;;;;;10112802;28;20098;-63
2021/09/20 12:32:38;;;;;;;4.18;2.20;;;21.20;80.70;;;;;;10115813;28;20594;-62
2021/09/20 12:37:29;;;;;;;5.15;2.30;;;21.20;80.30;;;;;;10105087;28;20183;-64
2021/09/20 12:42:22;;;;;;;3.92;2.20;;;21.30;80.30;;;;;;10124299;28;20044;-63
2021/09/20 12:47:19;;;;;;;4.00;2.60;;;21.60;79.00;;;;;;10127235;28;20055;-62
2021/09/20 12:52:25;;;;;;;4.93;2.30;;;22.10;78.00;;;;;;10121599;28;20182;-62
2021/09/20 12:57:25;;;;;;;2.45;1.70;;;21.90;77.40;;;;;;10116091;28;20683;-65
2021/09/20 13:02:15;;;;;;;3.63;2.08;;;21.80;78.20;;;;;;10096668;28;20067;-62
2021/09/20 13:07:12;;;;;;;2.97;2.35;;;21.60;78.30;;;;;;10114034;28;20457;-63
2021/09/20 13:12:07;;;;;;;3.70;2.40;;;21.80;77.00;;;;;;10112649;28;20050;-63
2021/09/20 13:17:06;;;;;;;3.35;2.33;;;21.50;77.60;;;;;;10102102;28;20043;-64
2021/09/20 13:22:03;;;;;;;6.55;3.22;;;21.50;77.20;;;;;;10116512;28;20530;-64
2021/09/20 13:26:53;;;;;;;2.90;2.25;;;21.40;76.70;;;;;;10119452;28;20063;-63
2021/09/20 13:31:44;;;;;;;3.38;2.28;;;23.10;75.70;;;;;;10114377;28;20064;-64
2021/09/20 13:36:35;;;;;;;2.92;2.15;;;27.30;70.00;;;;;;10116443;28;20043;-63
2021/09/20 13:41:25;;;;;;;3.53;2.40;;;28.90;67.60;;;;;;10118132;28;20588;-62
2021/09/20 13:46:20;;;;;;;3.00;2.70;;;29.40;65.60;;;;;;10096564;28;20028;-66
2021/09/20 13:51:11;;;;;;;4.18;3.20;;;25.80;70.20;;;;;;10118630;28;20533;-63
2021/09/20 13:56:02;;;;;;;5.53;3.13;;;27.10;67.80;;;;;;10117001;28;20212;-67
2021/09/20 14:00:54;;;;;;;4.10;2.65;;;27.00;66.90;;;;;;10128423;28;20048;-67
2021/09/20 14:05:44;;;;;;;3.40;2.28;;;28.10;65.00;;;;;;10117859;28;20100;-68
2021/09/20 14:10:36;;;;;;;2.50;2.22;;;28.50;64.50;;;;;;10122503;28;20111;-67
2021/09/20 14:15:26;;;;;;;2.60;2.20;;;26.60;65.70;;;;;;10119872;28;20028;-67
2021/09/20 14:20:17;;;;;;;3.00;2.08;;;24.30;68.20;;;;;;10114651;28;20059;-68
2021/09/20 14:25:10;;;;;;;4.45;3.88;;;23.10;69.10;;;;;;10115910;28;20029;-69
2021/09/20 14:30:02;;;;;;;4.72;2.55;;;24.80;66.40;;;;;;10097734;28;20034;-68
2021/09/20 14:34:53;;;;;;;3.28;2.72;;;26.70;62.80;;;;;;10115774;28;20036;-68
2021/09/20 14:39:44;;;;;;;3.05;2.38;;;27.70;62.00;;;;;;10121247;28;20422;-69
2021/09/20 14:44:34;;;;;;;4.35;2.40;;;25.90;63.30;;;;;;10113201;28;20448;-67
2021/09/20 14:49:25;;;;;;;2.85;2.53;;;24.00;66.20;;;;;;10116458;28;20553;-71
2021/09/20 14:54:16;;;;;;;6.10;2.65;;;23.00;67.50;;;;;;10120727;28;20302;-70
2021/09/20 14:59:07;;;;;;;4.55;3.15;;;22.50;68.20;;;;;;10120667;28;20075;-70
2021/09/20 15:03:59;;;;;;;5.43;3.67;;;22.40;68.00;;;;;;10113411;28;20306;-67
2021/09/20 15:08:50;;;;;;;5.07;3.78;;;24.10;64.90;;;;;;10107807;28;20048;-71
2021/09/20 15:13:40;;;;;;;7.25;4.38;;;22.90;67.30;;;;;;10103874;28;20103;-70
2021/09/20 15:18:32;;;;;;;4.63;3.38;;;22.20;68.70;;;;;;10119705;28;20575;-69
2021/09/20 15:23:23;;;;;;;6.78;4.00;;;22.00;69.10;;;;;;10119054;28;20115;-71
2021/09/20 15:28:15;;;;;;;5.65;4.32;;;23.60;66.80;;;;;;10118813;28;20028;-69
2021/09/20 15:33:06;;;;;;;4.57;3.72;;;24.60;63.50;;;;;;10116725;28;20020;-70
2021/09/20 15:37:57;;;;;;;5.28;3.90;;;23.90;65.50;;;;;;10095498;28;20119;-71
2021/09/20 15:42:53;;;;;;;5.55;3.90;;;26.20;61.90;;;;;;10127867;28;20108;-70
2021/09/20 15:47:44;;;;;;;5.25;4.25;;;27.70;59.30;;;;;;10123361;28;20486;-71
2021/09/20 15:52:36;;;;;;;6.28;3.83;;;29.00;57.50;;;;;;10117742;28;21114;-71
2021/09/20 15:57:27;;;;;;;7.93;4.47;;;29.50;56.00;;;;;;10128902;28;20049;-63
2021/09/20 16:02:18;;;;;;;5.25;4.25;;;28.40;57.80;;;;;;10118920;28;20036;-64
2021/09/20 16:07:08;;;;;;;8.50;4.63;;;26.90;60.10;;;;;;10114999;28;20020;-66
2021/09/20 16:11:59;;;;;;;6.03;3.70;;;26.10;61.40;;;;;;10121982;28;20340;-67
2021/09/20 16:16:50;;;;;;;4.63;4.00;;;25.50;61.80;;;;;;10117972;28;20177;-66
2021/09/20 16:21:41;;;;;;;6.07;4.05;;;25.10;61.50;;;;;;10121968;28;20045;-65
2021/09/20 16:26:32;;;;;;;6.30;4.97;;;23.60;64.10;;;;;;10118749;28;20037;-69
2021/09/20 16:31:22;;;;;;;5.00;3.35;;;22.80;65.40;;;;;;10122248;28;20354;-68
2021/09/20 16:36:14;;;;;;;5.80;3.70;;;22.00;66.90;;;;;;10122620;28;20266;-66
2021/09/20 16:41:04;;;;;;;7.45;3.95;;;21.30;67.80;;;;;;10123679;28;20037;-65
2021/09/20 16:45:55;;;;;;;5.70;3.88;;;21.10;68.30;;;;;;10122165;28;20025;-65
2021/09/20 16:50:46;;;;;;;6.20;4.03;;;21.30;67.40;;;;;;10121986;28;20164;-67
2021/09/20 16:55:37;;;;;;;5.85;3.72;;;20.90;68.40;;;;;;10128175;28;20116;-68
2021/09/20 17:00:27;;;;;;;5.93;4.13;;;20.50;69.20;;;;;;10114570;28;20043;-69
2021/09/20 17:05:18;;;;;;;7.45;4.22;;;20.30;69.70;;;;;;10112690;28;20025;-64
2021/09/20 17:10:10;;;;;;;6.72;4.28;;;20.20;70.20;;;;;;10113121;28;20503;-67
2021/09/20 17:15:01;;;;;;;6.75;4.15;;;19.90;70.80;;;;;;10116007;28;20511;-66
2021/09/20 17:19:51;;;;;;;7.28;4.10;;;19.80;71.10;;;;;;10112975;28;20170;-67
2021/09/20 17:24:42;;;;;;;7.68;5.93;;;19.70;71.70;;;;;;10117876;28;20040;-66
2021/09/20 17:29:33;;;;;;;8.25;5.30;;;19.50;72.20;;;;;;10105023;28;20036;-66
2021/09/20 17:34:24;;;;;;;5.53;4.05;;;19.40;72.60;;;;;;10110046;28;20117;-66
2021/09/20 17:39:15;;;;;;;6.03;3.78;;;19.40;72.80;;;;;;10095107;28;20175;-67
2021/09/20 17:44:07;;;;;;;6.10;4.45;;;19.10;73.70;;;;;;10116622;28;20025;-66
2021/09/20 17:48:57;;;;;;;7.10;4.35;;;18.90;74.30;;;;;;10110384;28;20028;-65
2021/09/20 17:53:48;;;;;;;6.90;4.18;;;18.90;74.60;;;;;;10117398;28;20499;-64
2021/09/20 17:58:39;;;;;;;6.55;4.45;;;18.80;75.10;;;;;;10117053;28;20087;-65
2021/09/20 18:03:30;;;;;;;6.43;4.78;;;18.80;75.20;;;;;;10116054;28;20113;-65
2021/09/20 18:08:20;;;;;;;7.18;4.47;;;18.70;75.50;;;;;;10122725;28;20115;-67
2021/09/20 18:13:12;;;;;;;7.53;4.50;;;18.60;75.90;;;;;;10101991;28;20532;-65
2021/09/20 18:18:02;;;;;;;8.75;4.90;;;18.60;76.00;;;;;;10108015;28;20024;-66
2021/09/20 18:22:53;;;;;;;8.48;5.13;;;18.60;76.20;;;;;;10109171;28;20051;-66
2021/09/20 18:27:45;;;;;;;8.30;5.65;;;18.50;76.60;;;;;;10114243;28;20034;-65
2021/09/20 18:32:36;;;;;;;10.85;5.65;;;18.40;77.10;;;;;;10116101;28;20111;-66
2021/09/20 18:37:26;;;;;;;8.63;6.00;;;18.30;77.30;;;;;;10114168;28;20040;-64
2021/09/20 18:42:17;;;;;;;10.02;6.68;;;18.30;77.40;;;;;;10129217;28;20540;-63
2021/09/20 18:47:08;;;;;;;7.90;5.13;;;18.30;77.80;;;;;;10115642;28;20089;-65
2021/09/20 18:51:58;;;;;;;8.18;6.10;;;18.30;77.90;;;;;;10118906;28;20036;-67
2021/09/20 18:56:49;;;;;;;8.52;5.68;;;18.30;78.40;;;;;;10109128;28;20037;-69
2021/09/20 19:01:40;;;;;;;9.07;5.97;;;18.20;78.80;;;;;;10098276;28;20277;-66
2021/09/20 19:06:31;;;;;;;12.60;6.30;;;18.10;79.60;;;;;;10114267;28;20036;-68
2021/09/20 19:11:21;;;;;;;9.00;5.97;;;18.10;79.70;;;;;;10112843;28;20035;-67
2021/09/20 19:16:13;;;;;;;11.43;6.80;;;18.10;80.00;;;;;;10112596;28;20025;-67
2021/09/20 19:21:06;;;;;;;9.93;6.78;;;18.10;80.40;;;;;;10119075;28;20032;-68
2021/09/20 19:25:57;;;;;;;13.57;7.75;;;17.90;80.90;;;;;;10113160;28;20530;-66
2021/09/20 19:30:48;;;;;;;14.15;8.05;;;17.80;81.60;;;;;;10109612;28;20130;-65
2021/09/20 19:35:39;;;;;;;11.23;7.32;;;17.80;80.90;;;;;;10108512;28;20116;-64
2021/09/20 19:40:30;;;;;;;10.68;5.72;;;17.70;81.20;;;;;;10091497;28;20092;-64
2021/09/20 19:45:21;;;;;;;12.15;6.88;;;17.70;81.20;;;;;;10108372;28;20118;-66
2021/09/20 19:50:11;;;;;;;13.65;6.80;;;17.70;81.30;;;;;;10095061;28;20032;-62
2021/09/20 19:55:04;;;;;;;9.68;7.10;;;17.70;81.20;;;;;;10104927;28;20033;-65
2021/09/20 19:59:55;;;;;;;10.25;5.72;;;17.60;81.70;;;;;;10115904;28;20101;-66
2021/09/20 20:04:45;;;;;;;11.00;6.75;;;17.70;81.20;;;;;;10113116;28;20024;-66
2021/09/20 20:09:36;;;;;;;10.55;6.65;;;17.80;81.10;;;;;;10112192;28;20032;-66
2021/09/20 20:14:27;;;;;;;10.18;6.35;;;17.70;81.30;;;;;;10114316;28;20510;-66
2021/09/20 20:19:18;;;;;;;10.75;5.78;;;17.60;81.30;;;;;;10109383;28;20062;-67
2021/09/20 20:24:11;;;;;;;10.20;5.18;;;17.40;81.80;;;;;;10119573;28;20644;-68
2021/09/20 20:29:03;;;;;;;11.80;6.05;;;17.40;81.90;;;;;;10121930;28;20443;-67
2021/09/20 20:33:54;;;;;;;11.20;6.38;;;17.30;82.10;;;;;;10113128;28;20585;-62
2021/09/20 20:38:45;;;;;;;9.27;5.65;;;17.40;82.30;;;;;;10118417;28;20048;-63
2021/09/20 20:43:36;;;;;;;11.85;6.25;;;17.40;82.20;;;;;;10101704;28;20407;-63
2021/09/20 20:48:27;;;;;;;7.85;5.13;;;17.50;82.30;;;;;;10123509;28;20032;-64
2021/09/20 20:53:17;;;;;;;10.38;6.18;;;17.60;81.80;;;;;;10119459;28;20032;-62
2021/09/20 20:58:08;;;;;;;9.68;5.25;;;17.60;81.80;;;;;;10118613;28;20059;-64
2021/09/20 21:02:59;;;;;;;11.25;5.47;;;17.50;82.00;;;;;;10118544;28;20306;-62
2021/09/20 21:07:51;;;;;;;10.32;6.13;;;17.50;81.90;;;;;;10111224;28;20031;-62
2021/09/20 21:12:41;;;;;;;9.80;5.70;;;17.50;81.90;;;;;;10125016;28;20039;-63
2021/09/20 21:17:32;;;;;;;12.43;5.18;;;17.50;81.80;;;;;;10120644;28;20056;-64
2021/09/20 21:22:23;;;;;;;9.13;5.40;;;17.50;81.80;;;;;;10124791;28;20041;-62
2021/09/20 21:27:14;;;;;;;9.43;6.40;;;17.50;81.70;;;;;;10135469;28;20059;-61
2021/09/20 21:32:05;;;;;;;10.52;6.07;;;17.50;81.90;;;;;;10124370;28;20021;-65
2021/09/20 21:36:55;;;;;;;9.98;5.95;;;17.20;82.40;;;;;;10125822;28;20419;-62
2021/09/20 21:41:46;;;;;;;12.20;6.28;;;17.10;82.50;;;;;;10128016;28;20367;-62
2021/09/20 21:46:37;;;;;;;10.02;6.30;;;17.00;82.40;;;;;;10120438;28;20020;-65
2021/09/20 21:51:28;;;;;;;10.10;5.93;;;17.10;82.10;;;;;;10105871;28;20033;-64
2021/09/20 21:56:18;;;;;;;10.07;4.95;;;17.00;82.30;;;;;;10114408;28;20055;-63
2021/09/20 22:01:09;;;;;;;11.30;6.05;;;17.10;82.10;;;;;;10104461;28;20036;-61
2021/09/20 22:06:00;;;;;;;10.10;6.68;;;17.00;82.20;;;;;;10116731;28;20032;-63
2021/09/20 22:10:53;;;;;;;11.07;6.32;;;17.00;82.20;;;;;;10115859;28;20071;-61
2021/09/20 22:15:45;;;;;;;10.32;6.07;;;16.90;82.20;;;;;;10115176;28;21560;-62
2021/09/20 22:20:36;;;;;;;10.60;5.85;;;16.90;82.40;;;;;;10097571;28;20228;-60
2021/09/20 22:25:26;;;;;;;8.18;5.57;;;17.00;82.20;;;;;;10113686;28;20518;-60
2021/09/20 22:30:18;;;;;;;11.02;6.10;;;17.00;82.00;;;;;;10112419;28;20135;-61
2021/09/20 22:35:09;;;;;;;10.25;6.22;;;16.80;82.30;;;;;;10118335;28;20078;-60
2021/09/20 22:40:00;;;;;;;9.10;5.53;;;16.70;82.80;;;;;;10114792;28;20051;-61
2021/09/20 22:44:51;;;;;;;7.70;4.70;;;16.70;82.80;;;;;;10115322;28;20493;-61
2021/09/20 22:49:41;;;;;;;10.75;5.53;;;16.60;83.00;;;;;;10098194;28;20360;-62
2021/09/20 22:54:32;;;;;;;10.65;6.38;;;16.50;83.00;;;;;;10118999;28;20166;-63
2021/09/20 22:59:23;;;;;;;9.13;5.88;;;16.50;82.80;;;;;;10118229;28;20097;-63
2021/09/20 23:04:31;;;;;;;7.60;4.72;;;16.40;82.80;;;;;;10118644;28;20052;-62
2021/09/20 23:09:22;;;;;;;11.15;5.97;;;16.50;82.90;;;;;;10119330;28;20025;-61
2021/09/20 23:14:12;;;;;;;8.15;4.97;;;16.50;83.00;;;;;;10116416;28;20024;-62
2021/09/20 23:19:03;;;;;;;8.80;5.38;;;16.50;82.80;;;;;;10116781;28;20123;-61
2021/09/20 23:23:54;;;;;;;10.55;5.68;;;16.50;82.90;;;;;;10111654;28;20448;-64
2021/09/20 23:28:44;;;;;;;9.13;5.45;;;16.40;83.20;;;;;;10114159;28;20521;-61
2021/09/20 23:33:35;;;;;;;10.10;5.53;;;16.40;83.10;;;;;;10098550;28;20490;-62
2021/09/20 23:38:26;;;;;;;10.07;5.97;;;16.50;83.00;;;;;;10094183;28;20546;-62
2021/09/20 23:43:16;;;;;;;8.50;4.45;;;16.50;82.80;;;;;;10114954;28;20036;-61
2021/09/20 23:48:07;;;;;;;7.70;4.47;;;16.50;82.90;;;;;;10116166;28;20025;-60
2021/09/20 23:52:57;;;;;;;9.50;5.00;;;16.40;83.10;;;;;;10111216;28;20059;-61
2021/09/20 23:57:48;;;;;;;7.90;4.80;;;16.30;83.20;;;;;;10121112;28;20051;-62
